Time,TemperatureF,DewpointF,PressureIn,WindDirection,WindDirectionDegrees,WindSpeedMPH,WindSpeedGustMPH,Humidity,HourlyPrecipIn,Conditions,Clouds,dailyrainin,SoftwareType,DateUTC
2013-01-30 00:02:00,19.5,14.3,29.83,NW,322,6.0,7.0,80,0.00,,,0.00,vanprod-2.3,2013-01-30 06:02:00,
2013-01-30 00:07:00,19.2,14.1,29.83,NNW,343,7.0,11.0,80,0.00,,,0.00,vanprod-2.3,2013-01-30 06:07:00,
2013-01-30 00:12:00,19.0,13.9,29.83,NNW,342,4.0,7.0,80,0.00,,,0.00,vanprod-2.3,2013-01-30 06:12:00,
2013-01-30 00:17:00,18.9,13.5,29.83,NNW,340,10.0,14.0,79,0.00,,,0.00,vanprod-2.3,2013-01-30 06:17:00,
2013-01-30 00:22:00,18.9,13.5,29.82,NNW,340,8.0,10.0,79,0.00,,,0.00,vanprod-2.3,2013-01-30 06:22:00,
2013-01-30 00:27:00,18.7,13.3,29.81,North,355,8.0,12.0,79,0.00,,,0.00,vanprod-2.3,2013-01-30 06:27:00,
2013-01-30 00:32:00,18.6,13.2,29.82,North,359,9.0,16.0,79,0.00,,,0.00,vanprod-2.3,2013-01-30 06:32:00,
2013-01-30 00:37:00,18.4,12.7,29.82,NNW,346,10.0,13.0,78,0.00,,,0.00,vanprod-2.3,2013-01-30 06:37:00,
2013-01-30 00:42:00,18.1,12.4,29.82,North,353,8.0,13.0,78,0.00,,,0.00,vanprod-2.3,2013-01-30 06:42:00,
2013-01-30 00:47:00,17.9,12.2,29.82,NW,319,5.0,7.0,78,0.00,,,0.00,vanprod-2.3,2013-01-30 06:47:00,
2013-01-30 00:52:00,17.8,12.4,29.82,WNW,303,5.0,7.0,79,0.00,,,0.00,vanprod-2.3,2013-01-30 06:52:00,
2013-01-30 00:57:00,17.8,12.7,29.82,NNW,345,7.0,7.0,80,0.00,,,0.00,vanprod-2.3,2013-01-30 06:57:00,
2013-01-30 01:02:00,17.6,12.2,29.82,North,357,7.0,12.0,79,0.00,,,0.00,vanprod-2.3,2013-01-30 07:02:00,
2013-01-30 01:07:00,17.5,12.1,29.82,NNW,332,6.0,7.0,79,0.00,,,0.00,vanprod-2.3,2013-01-30 07:07:00,
2013-01-30 01:12:00,17.3,11.9,29.82,NNW,337,9.0,13.0,79,0.00,,,0.00,vanprod-2.3,2013-01-30 07:12:00,
2013-01-30 01:17:00,17.2,11.8,29.81,NNW,343,9.0,11.0,79,0.00,,,0.00,vanprod-2.3,2013-01-30 07:17:00,
2013-01-30 01:22:00,17.0,11.6,29.81,NNW,347,9.0,10.0,79,0.00,,,0.00,vanprod-2.3,2013-01-30 07:22:00,
2013-01-30 01:27:00,16.8,11.1,29.80,NNW,343,9.0,16.0,78,0.00,,,0.00,vanprod-2.3,2013-01-30 07:27:00,
2013-01-30 01:32:00,16.7,10.8,29.80,North,355,10.0,16.0,77,0.00,,,0.00,vanprod-2.3,2013-01-30 07:32:00,
2013-01-30 01:37:00,16.7,10.8,29.79,NW,310,7.0,11.0,77,0.00,,,0.00,vanprod-2.3,2013-01-30 07:37:00,
2013-01-30 01:42:00,16.4,9.9,29.79,NNW,335,12.0,24.0,75,0.00,,,0.00,vanprod-2.3,2013-01-30 07:42:00,
2013-01-30 01:47:00,15.9,9.4,29.79,NNW,347,10.0,17.0,75,0.00,,,0.00,vanprod-2.3,2013-01-30 07:47:00,
2013-01-30 01:52:00,15.7,9.5,29.79,NNW,348,6.0,7.0,76,0.00,,,0.00,vanprod-2.3,2013-01-30 07:52:00,
2013-01-30 01:57:00,15.7,9.8,29.79,North,352,5.0,13.0,77,0.00,,,0.00,vanprod-2.3,2013-01-30 07:57:00,
2013-01-30 02:02:00,15.6,9.7,29.79,North,350,5.0,8.0,77,0.00,,,0.00,vanprod-2.3,2013-01-30 08:02:00,
2013-01-30 02:07:00,15.2,9.0,29.80,North,352,11.0,14.0,76,0.00,,,0.00,vanprod-2.3,2013-01-30 08:07:00,
2013-01-30 02:12:00,14.9,8.7,29.80,NW,323,8.0,8.0,76,0.00,,,0.00,vanprod-2.3,2013-01-30 08:12:00,
2013-01-30 02:17:00,14.7,8.8,29.80,NW,325,9.0,12.0,77,0.00,,,0.00,vanprod-2.3,2013-01-30 08:17:00,
2013-01-30 02:22:00,14.6,9.0,29.80,North,352,8.0,17.0,78,0.00,,,0.00,vanprod-2.3,2013-01-30 08:22:00,
2013-01-30 02:27:00,14.6,9.0,29.81,WNW,302,6.0,6.0,78,0.00,,,0.00,vanprod-2.3,2013-01-30 08:27:00,
2013-01-30 02:32:00,14.4,8.8,29.81,North,350,8.0,10.0,78,0.00,,,0.00,vanprod-2.3,2013-01-30 08:32:00,
2013-01-30 02:37:00,14.4,8.8,29.81,North,353,6.0,6.0,78,0.00,,,0.00,vanprod-2.3,2013-01-30 08:37:00,
2013-01-30 02:42:00,14.3,8.7,29.81,NW,322,8.0,9.0,78,0.00,,,0.00,vanprod-2.3,2013-01-30 08:42:00,
2013-01-30 02:47:00,14.1,8.5,29.81,NW,305,8.0,10.0,78,0.00,,,0.00,vanprod-2.3,2013-01-30 08:47:00,
2013-01-30 02:52:00,14.1,8.8,29.81,NNW,339,7.0,12.0,79,0.00,,,0.00,vanprod-2.3,2013-01-30 08:52:00,
2013-01-30 02:57:00,13.9,8.6,29.81,NNW,327,8.0,11.0,79,0.00,,,0.00,vanprod-2.3,2013-01-30 08:57:00,
2013-01-30 03:02:00,13.9,8.6,29.81,NNW,346,10.0,14.0,79,0.00,,,0.00,vanprod-2.3,2013-01-30 09:02:00,
2013-01-30 03:07:00,13.8,8.5,29.80,NNW,329,4.0,14.0,79,0.00,,,0.00,vanprod-2.3,2013-01-30 09:07:00,
2013-01-30 03:12:00,13.8,8.5,29.80,North,354,6.0,12.0,79,0.00,,,0.00,vanprod-2.3,2013-01-30 09:12:00,
2013-01-30 03:17:00,13.8,8.5,29.81,NNW,345,9.0,17.0,79,0.00,,,0.00,vanprod-2.3,2013-01-30 09:17:00,
2013-01-30 03:22:00,13.6,8.3,29.81,North,356,7.0,14.0,79,0.00,,,0.00,vanprod-2.3,2013-01-30 09:22:00,
2013-01-30 03:27:00,13.6,8.3,29.82,NNW,333,7.0,16.0,79,0.00,,,0.00,vanprod-2.3,2013-01-30 09:27:00,
2013-01-30 03:32:00,13.6,8.3,29.82,NW,310,5.0,10.0,79,0.00,,,0.00,vanprod-2.3,2013-01-30 09:32:00,
2013-01-30 03:37:00,13.6,8.0,29.82,NNW,337,7.0,7.0,78,0.00,,,0.00,vanprod-2.3,2013-01-30 09:37:00,
2013-01-30 03:42:00,13.5,8.2,29.81,NNW,341,7.0,13.0,79,0.00,,,0.00,vanprod-2.3,2013-01-30 09:42:00,
2013-01-30 03:47:00,13.5,7.9,29.81,NNW,339,8.0,11.0,78,0.00,,,0.00,vanprod-2.3,2013-01-30 09:47:00,
2013-01-30 03:52:00,13.5,7.9,29.81,NNW,337,9.0,12.0,78,0.00,,,0.00,vanprod-2.3,2013-01-30 09:52:00,
2013-01-30 03:57:00,13.5,7.9,29.80,NW,319,4.0,6.0,78,0.00,,,0.00,vanprod-2.3,2013-01-30 09:57:00,
2013-01-30 04:02:00,13.3,7.5,29.80,North,352,14.0,19.0,77,0.00,,,0.00,vanprod-2.3,2013-01-30 10:02:00,
2013-01-30 04:07:00,13.3,7.5,29.80,NNW,335,9.0,12.0,77,0.00,,,0.00,vanprod-2.3,2013-01-30 10:07:00,
2013-01-30 04:12:00,13.3,7.5,29.80,NNW,330,9.0,13.0,77,0.00,,,0.00,vanprod-2.3,2013-01-30 10:12:00,
2013-01-30 04:17:00,13.3,7.5,29.80,North,349,9.0,9.0,77,0.00,,,0.00,vanprod-2.3,2013-01-30 10:17:00,
2013-01-30 04:22:00,13.3,7.5,29.80,NNW,329,9.0,10.0,77,0.00,,,0.00,vanprod-2.3,2013-01-30 10:22:00,
2013-01-30 04:27:00,13.1,7.3,29.80,NNW,343,7.0,11.0,77,0.00,,,0.00,vanprod-2.3,2013-01-30 10:27:00,
2013-01-30 04:32:00,13.1,7.3,29.80,NNW,340,7.0,20.0,77,0.00,,,0.00,vanprod-2.3,2013-01-30 10:32:00,
2013-01-30 04:37:00,13.0,7.2,29.80,NNW,347,11.0,16.0,77,0.00,,,0.00,vanprod-2.3,2013-01-30 10:37:00,
2013-01-30 04:42:00,13.0,7.2,29.80,NNW,333,8.0,11.0,77,0.00,,,0.00,vanprod-2.3,2013-01-30 10:42:00,
2013-01-30 04:47:00,13.0,7.4,29.80,NW,322,8.0,14.0,78,0.00,,,0.00,vanprod-2.3,2013-01-30 10:47:00,
2013-01-30 04:52:00,12.8,7.2,29.81,NNW,340,8.0,18.0,78,0.00,,,0.00,vanprod-2.3,2013-01-30 10:52:00,
2013-01-30 04:57:00,12.8,7.2,29.81,NNW,333,9.0,17.0,78,0.00,,,0.00,vanprod-2.3,2013-01-30 10:57:00,
2013-01-30 05:02:00,12.8,7.2,29.81,NW,324,8.0,14.0,78,0.00,,,0.00,vanprod-2.3,2013-01-30 11:02:00,
2013-01-30 05:07:00,12.8,7.2,29.81,NNW,343,8.0,16.0,78,0.00,,,0.00,vanprod-2.3,2013-01-30 11:07:00,
2013-01-30 05:12:00,12.8,7.2,29.81,North,357,7.0,7.0,78,0.00,,,0.00,vanprod-2.3,2013-01-30 11:12:00,
2013-01-30 05:17:00,12.8,7.2,29.81,NNW,332,6.0,6.0,78,0.00,,,0.00,vanprod-2.3,2013-01-30 11:17:00,
2013-01-30 05:22:00,12.8,7.2,29.82,NNW,329,9.0,20.0,78,0.00,,,0.00,vanprod-2.3,2013-01-30 11:22:00,
2013-01-30 05:27:00,12.6,7.1,29.81,NNW,342,8.0,14.0,78,0.00,,,0.00,vanprod-2.3,2013-01-30 11:27:00,
2013-01-30 05:32:00,12.6,6.8,29.81,NW,318,8.0,11.0,77,0.00,,,0.00,vanprod-2.3,2013-01-30 11:32:00,
2013-01-30 05:37:00,12.6,6.5,29.81,NNW,331,9.0,16.0,76,0.00,,,0.00,vanprod-2.3,2013-01-30 11:37:00,
2013-01-30 05:42:00,12.4,5.7,29.81,North,349,8.0,16.0,74,0.00,,,0.00,vanprod-2.3,2013-01-30 11:42:00,
2013-01-30 05:47:00,12.3,5.3,29.81,NNW,343,9.0,21.0,73,0.00,,,0.00,vanprod-2.3,2013-01-30 11:47:00,
2013-01-30 05:52:00,12.1,5.1,29.81,NNW,336,8.0,12.0,73,0.00,,,0.00,vanprod-2.3,2013-01-30 11:52:00,
2013-01-30 05:57:00,12.1,5.1,29.81,NNW,335,8.0,8.0,73,0.00,,,0.00,vanprod-2.3,2013-01-30 11:57:00,
2013-01-30 06:02:00,11.9,4.9,29.81,NNW,331,8.0,17.0,73,0.00,,,0.00,vanprod-2.3,2013-01-30 12:02:00,
2013-01-30 06:07:00,11.8,4.8,29.81,North,349,8.0,14.0,73,0.00,,,0.00,vanprod-2.3,2013-01-30 12:07:00,
2013-01-30 06:12:00,11.8,4.8,29.80,NNW,333,8.0,12.0,73,0.00,,,0.00,vanprod-2.3,2013-01-30 12:12:00,
2013-01-30 06:17:00,11.6,4.6,29.80,NW,325,8.0,14.0,73,0.00,,,0.00,vanprod-2.3,2013-01-30 12:17:00,
2013-01-30 06:22:00,11.4,4.4,29.80,NNW,331,9.0,17.0,73,0.00,,,0.00,vanprod-2.3,2013-01-30 12:22:00,
2013-01-30 06:27:00,11.2,4.5,29.80,NNW,347,8.0,11.0,74,0.00,,,0.00,vanprod-2.3,2013-01-30 12:27:00,
2013-01-30 06:32:00,11.1,4.4,29.80,NNW,332,6.0,12.0,74,0.00,,,0.00,vanprod-2.3,2013-01-30 12:32:00,
2013-01-30 06:37:00,11.1,4.4,29.80,NNW,337,8.0,8.0,74,0.00,,,0.00,vanprod-2.3,2013-01-30 12:37:00,
2013-01-30 06:42:00,11.1,4.2,29.80,NNW,344,11.0,17.0,73,0.00,,,0.00,vanprod-2.3,2013-01-30 12:42:00,
2013-01-30 06:47:00,10.9,4.3,29.80,NNW,342,7.0,12.0,74,0.00,,,0.00,vanprod-2.3,2013-01-30 12:47:00,
2013-01-30 06:52:00,10.9,4.3,29.80,NNW,344,7.0,7.0,74,0.00,,,0.00,vanprod-2.3,2013-01-30 12:52:00,
2013-01-30 06:57:00,10.9,4.3,29.80,NNW,345,7.0,16.0,74,0.00,,,0.00,vanprod-2.3,2013-01-30 12:57:00,
2013-01-30 07:02:00,10.7,4.4,29.80,NW,313,4.0,13.0,75,0.00,,,0.00,vanprod-2.3,2013-01-30 13:02:00,
2013-01-30 07:07:00,10.7,4.1,29.80,NNW,345,6.0,6.0,74,0.00,,,0.00,vanprod-2.3,2013-01-30 13:07:00,
2013-01-30 07:12:00,10.6,4.0,29.80,NNW,340,11.0,19.0,74,0.00,,,0.00,vanprod-2.3,2013-01-30 13:12:00,
2013-01-30 07:17:00,10.6,4.3,29.80,North,355,4.0,8.0,75,0.00,,,0.00,vanprod-2.3,2013-01-30 13:17:00,
2013-01-30 07:22:00,10.6,4.3,29.80,NNW,337,8.0,14.0,75,0.00,,,0.00,vanprod-2.3,2013-01-30 13:22:00,
2013-01-30 07:27:00,10.6,4.0,29.80,NNW,332,8.0,18.0,74,0.00,,,0.00,vanprod-2.3,2013-01-30 13:27:00,
2013-01-30 07:32:00,10.6,4.3,29.80,NNW,339,9.0,9.0,75,0.00,,,0.00,vanprod-2.3,2013-01-30 13:32:00,
2013-01-30 07:37:00,10.4,4.3,29.79,NNW,339,8.0,12.0,76,0.00,,,0.00,vanprod-2.3,2013-01-30 13:37:00,
2013-01-30 07:42:00,10.4,4.3,29.79,NNW,338,10.0,12.0,76,0.00,,,0.00,vanprod-2.3,2013-01-30 13:42:00,
2013-01-30 07:47:00,10.4,4.3,29.80,NW,324,7.0,10.0,76,0.00,,,0.00,vanprod-2.3,2013-01-30 13:47:00,
2013-01-30 07:52:00,10.4,4.6,29.80,NNW,334,6.0,12.0,77,0.00,,,0.00,vanprod-2.3,2013-01-30 13:52:00,
2013-01-30 07:57:00,10.4,4.6,29.80,NW,317,8.0,12.0,77,0.00,,,0.00,vanprod-2.3,2013-01-30 13:57:00,
2013-01-30 08:02:00,10.2,4.4,29.80,NNW,329,10.0,17.0,77,0.00,,,0.00,vanprod-2.3,2013-01-30 14:02:00,
2013-01-30 08:07:00,10.2,4.2,29.80,NW,310,7.0,19.0,76,0.00,,,0.00,vanprod-2.3,2013-01-30 14:07:00,
2013-01-30 08:12:00,10.2,3.9,29.80,NNW,333,8.0,11.0,75,0.00,,,0.00,vanprod-2.3,2013-01-30 14:12:00,
2013-01-30 08:17:00,10.0,4.0,29.80,NW,326,7.0,13.0,76,0.00,,,0.00,vanprod-2.3,2013-01-30 14:17:00,
2013-01-30 08:22:00,10.0,4.0,29.80,NNW,334,9.0,14.0,76,0.00,,,0.00,vanprod-2.3,2013-01-30 14:22:00,
2013-01-30 08:27:00,9.9,4.1,29.80,NW,321,7.0,11.0,77,0.00,,,0.00,vanprod-2.3,2013-01-30 14:27:00,
2013-01-30 08:32:00,9.7,4.2,29.80,NW,304,8.0,8.0,78,0.00,,,0.00,vanprod-2.3,2013-01-30 14:32:00,
2013-01-30 08:37:00,9.4,3.7,29.80,North,349,7.0,11.0,77,0.00,,,0.00,vanprod-2.3,2013-01-30 14:37:00,
2013-01-30 08:42:00,9.0,2.7,29.81,NNW,336,7.0,7.0,75,0.00,,,0.00,vanprod-2.3,2013-01-30 14:42:00,
2013-01-30 08:47:00,8.8,3.1,29.81,NNW,332,7.0,15.0,77,0.00,,,0.00,vanprod-2.3,2013-01-30 14:47:00,
2013-01-30 08:52:00,8.7,3.0,29.81,NW,319,7.0,12.0,77,0.00,,,0.00,vanprod-2.3,2013-01-30 14:52:00,
2013-01-30 08:57:00,8.7,3.0,29.81,NNW,337,9.0,24.0,77,0.00,,,0.00,vanprod-2.3,2013-01-30 14:57:00,
2013-01-30 09:02:00,8.7,2.7,29.80,NNW,332,8.0,11.0,76,0.00,,,0.00,vanprod-2.3,2013-01-30 15:02:00,
2013-01-30 09:07:00,8.8,2.8,29.80,NW,321,10.0,16.0,76,0.00,,,0.00,vanprod-2.3,2013-01-30 15:07:00,
2013-01-30 09:12:00,8.8,3.1,29.80,NNW,334,5.0,11.0,77,0.00,,,0.00,vanprod-2.3,2013-01-30 15:12:00,
2013-01-30 09:17:00,9.0,3.3,29.80,NW,322,6.0,9.0,77,0.00,,,0.00,vanprod-2.3,2013-01-30 15:17:00,
2013-01-30 09:22:00,9.2,3.5,29.81,NNW,331,6.0,12.0,77,0.00,,,0.00,vanprod-2.3,2013-01-30 15:22:00,
2013-01-30 09:27:00,9.4,3.4,29.80,NNW,330,8.0,12.0,76,0.00,,,0.00,vanprod-2.3,2013-01-30 15:27:00,
2013-01-30 09:32:00,9.4,3.4,29.80,NW,311,6.0,6.0,76,0.00,,,0.00,vanprod-2.3,2013-01-30 15:32:00,
2013-01-30 09:37:00,9.5,3.5,29.81,NNW,337,8.0,9.0,76,0.00,,,0.00,vanprod-2.3,2013-01-30 15:37:00,
2013-01-30 09:42:00,9.5,3.5,29.81,NNW,345,8.0,11.0,76,0.00,,,0.00,vanprod-2.3,2013-01-30 15:42:00,
2013-01-30 09:47:00,9.5,3.5,29.81,NNW,332,7.0,16.0,76,0.00,,,0.00,vanprod-2.3,2013-01-30 15:47:00,
2013-01-30 09:52:00,9.7,4.0,29.81,NW,326,6.0,6.0,77,0.00,,,0.00,vanprod-2.3,2013-01-30 15:52:00,
2013-01-30 09:57:00,9.7,3.7,29.81,NNW,345,8.0,13.0,76,0.00,,,0.00,vanprod-2.3,2013-01-30 15:57:00,
2013-01-30 10:02:00,9.9,3.9,29.82,NNW,348,7.0,13.0,76,0.00,,,0.00,vanprod-2.3,2013-01-30 16:02:00,
2013-01-30 10:07:00,9.7,4.0,29.82,North,353,8.0,12.0,77,0.00,,,0.00,vanprod-2.3,2013-01-30 16:07:00,
2013-01-30 10:12:00,9.9,4.4,29.82,NW,325,7.0,14.0,78,0.00,,,0.00,vanprod-2.3,2013-01-30 16:12:00,
2013-01-30 10:17:00,9.9,4.4,29.82,NW,317,4.0,8.0,78,0.00,,,0.00,vanprod-2.3,2013-01-30 16:17:00,
2013-01-30 10:22:00,9.9,3.9,29.82,NNW,344,8.0,18.0,76,0.00,,,0.00,vanprod-2.3,2013-01-30 16:22:00,
2013-01-30 10:27:00,10.0,4.2,29.82,North,352,9.0,16.0,77,0.00,,,0.00,vanprod-2.3,2013-01-30 16:27:00,
2013-01-30 10:32:00,10.0,4.2,29.82,NNW,346,9.0,12.0,77,0.00,,,0.00,vanprod-2.3,2013-01-30 16:32:00,
2013-01-30 10:37:00,10.0,4.2,29.82,NW,314,7.0,14.0,77,0.00,,,0.00,vanprod-2.3,2013-01-30 16:37:00,
2013-01-30 10:42:00,10.2,4.2,29.82,NW,325,8.0,11.0,76,0.00,,,0.00,vanprod-2.3,2013-01-30 16:42:00,
2013-01-30 10:47:00,10.4,4.3,29.82,NNW,331,7.0,16.0,76,0.00,,,0.00,vanprod-2.3,2013-01-30 16:47:00,
2013-01-30 10:52:00,10.4,4.1,29.82,NNW,340,7.0,7.0,75,0.00,,,0.00,vanprod-2.3,2013-01-30 16:52:00,
2013-01-30 10:57:00,10.6,4.5,29.82,North,350,7.0,9.0,76,0.00,,,0.00,vanprod-2.3,2013-01-30 16:57:00,
2013-01-30 11:02:00,10.7,4.6,29.82,NW,324,6.0,11.0,76,0.00,,,0.00,vanprod-2.3,2013-01-30 17:02:00,
2013-01-30 11:07:00,10.7,4.4,29.82,NNW,332,8.0,13.0,75,0.00,,,0.00,vanprod-2.3,2013-01-30 17:07:00,
2013-01-30 11:12:00,10.6,4.3,29.82,NW,324,6.0,11.0,75,0.00,,,0.00,vanprod-2.3,2013-01-30 17:12:00,
2013-01-30 11:17:00,10.7,4.1,29.82,NNW,327,6.0,10.0,74,0.00,,,0.00,vanprod-2.3,2013-01-30 17:17:00,
2013-01-30 11:22:00,10.6,4.3,29.82,NNW,341,8.0,10.0,75,0.00,,,0.00,vanprod-2.3,2013-01-30 17:22:00,
2013-01-30 11:27:00,10.7,4.6,29.82,North,350,9.0,17.0,76,0.00,,,0.00,vanprod-2.3,2013-01-30 17:27:00,
2013-01-30 11:32:00,10.7,4.4,29.83,North,349,6.0,6.0,75,0.00,,,0.00,vanprod-2.3,2013-01-30 17:32:00,
2013-01-30 11:37:00,11.1,5.0,29.83,North,358,4.0,7.0,76,0.00,,,0.00,vanprod-2.3,2013-01-30 17:37:00,
2013-01-30 11:42:00,11.2,4.5,29.82,NNW,329,10.0,10.0,74,0.00,,,0.00,vanprod-2.3,2013-01-30 17:42:00,
2013-01-30 11:47:00,11.4,4.7,29.82,NW,324,6.0,12.0,74,0.00,,,0.00,vanprod-2.3,2013-01-30 17:47:00,
2013-01-30 11:52:00,11.6,5.2,29.82,NNW,332,5.0,11.0,75,0.00,,,0.00,vanprod-2.3,2013-01-30 17:52:00,
2013-01-30 11:57:00,11.6,4.9,29.82,NNW,348,8.0,10.0,74,0.00,,,0.00,vanprod-2.3,2013-01-30 17:57:00,
2013-01-30 12:02:00,11.4,4.7,29.82,NNW,345,9.0,13.0,74,0.00,,,0.00,vanprod-2.3,2013-01-30 18:02:00,
2013-01-30 12:07:00,11.6,4.9,29.81,NNW,334,6.0,11.0,74,0.00,,,0.00,vanprod-2.3,2013-01-30 18:07:00,
2013-01-30 12:12:00,11.9,5.2,29.81,WNW,290,6.0,10.0,74,0.00,,,0.00,vanprod-2.3,2013-01-30 18:12:00,
2013-01-30 12:17:00,12.1,5.7,29.81,North,353,5.0,7.0,75,0.00,,,0.00,vanprod-2.3,2013-01-30 18:17:00,
2013-01-30 12:22:00,12.1,5.4,29.81,NNW,331,8.0,10.0,74,0.00,,,0.00,vanprod-2.3,2013-01-30 18:22:00,
2013-01-30 12:27:00,11.9,4.9,29.81,NNW,328,8.0,11.0,73,0.00,,,0.00,vanprod-2.3,2013-01-30 18:27:00,
2013-01-30 12:32:00,12.3,5.3,29.80,NNW,332,8.0,12.0,73,0.00,,,0.00,vanprod-2.3,2013-01-30 18:32:00,
2013-01-30 12:37:00,12.6,5.3,29.80,NW,315,6.0,12.0,72,0.00,,,0.00,vanprod-2.3,2013-01-30 18:37:00,
2013-01-30 12:42:00,12.8,5.5,29.80,NNW,335,6.0,7.0,72,0.00,,,0.00,vanprod-2.3,2013-01-30 18:42:00,
2013-01-30 12:47:00,13.1,5.5,29.80,NNW,347,4.0,8.0,71,0.00,,,0.00,vanprod-2.3,2013-01-30 18:47:00,
2013-01-30 12:52:00,13.5,5.6,29.80,NW,318,9.0,10.0,70,0.00,,,0.00,vanprod-2.3,2013-01-30 18:52:00,
2013-01-30 12:57:00,13.1,5.2,29.80,NW,312,8.0,11.0,70,0.00,,,0.00,vanprod-2.3,2013-01-30 18:57:00,
2013-01-30 13:02:00,13.0,5.1,29.80,NNW,331,7.0,11.0,70,0.00,,,0.00,vanprod-2.3,2013-01-30 19:02:00,
2013-01-30 13:07:00,13.1,5.5,29.80,NW,318,7.0,12.0,71,0.00,,,0.00,vanprod-2.3,2013-01-30 19:07:00,
2013-01-30 13:12:00,13.0,6.0,29.80,NW,325,7.0,11.0,73,0.00,,,0.00,vanprod-2.3,2013-01-30 19:12:00,
2013-01-30 13:17:00,12.6,6.5,29.80,NNW,333,5.0,8.0,76,0.00,,,0.00,vanprod-2.3,2013-01-30 19:17:00,
2013-01-30 13:22:00,12.4,6.0,29.80,NW,319,7.0,11.0,75,0.00,,,0.00,vanprod-2.3,2013-01-30 19:22:00,
2013-01-30 13:27:00,12.1,5.4,29.80,NNW,328,6.0,7.0,74,0.00,,,0.00,vanprod-2.3,2013-01-30 19:27:00,
2013-01-30 13:32:00,12.1,5.4,29.80,NW,323,4.0,8.0,74,0.00,,,0.00,vanprod-2.3,2013-01-30 19:32:00,
2013-01-30 13:37:00,12.1,4.8,29.79,NNW,329,9.0,10.0,72,0.00,,,0.00,vanprod-2.3,2013-01-30 19:37:00,
2013-01-30 13:42:00,11.8,5.1,29.79,NW,323,6.0,9.0,74,0.00,,,0.00,vanprod-2.3,2013-01-30 19:42:00,
2013-01-30 13:47:00,11.6,4.6,29.79,NNW,342,5.0,8.0,73,0.00,,,0.00,vanprod-2.3,2013-01-30 19:47:00,
2013-01-30 13:52:00,11.8,4.8,29.79,NNW,344,6.0,7.0,73,0.00,,,0.00,vanprod-2.3,2013-01-30 19:52:00,
2013-01-30 13:57:00,11.9,5.2,29.79,NW,315,4.0,8.0,74,0.00,,,0.00,vanprod-2.3,2013-01-30 19:57:00,
2013-01-30 14:02:00,11.8,5.1,29.79,NW,322,6.0,12.0,74,0.00,,,0.00,vanprod-2.3,2013-01-30 20:02:00,
2013-01-30 14:07:00,11.4,4.4,29.79,NNW,330,7.0,8.0,73,0.00,,,0.00,vanprod-2.3,2013-01-30 20:07:00,
2013-01-30 14:12:00,11.2,4.5,29.79,NW,316,6.0,7.0,74,0.00,,,0.00,vanprod-2.3,2013-01-30 20:12:00,
2013-01-30 14:17:00,11.1,5.0,29.79,NW,314,4.0,7.0,76,0.00,,,0.00,vanprod-2.3,2013-01-30 20:17:00,
2013-01-30 14:22:00,11.1,4.4,29.79,WNW,303,6.0,8.0,74,0.00,,,0.00,vanprod-2.3,2013-01-30 20:22:00,
2013-01-30 14:27:00,11.2,4.5,29.79,NNW,344,5.0,10.0,74,0.00,,,0.00,vanprod-2.3,2013-01-30 20:27:00,
2013-01-30 14:32:00,11.1,4.4,29.79,NW,320,7.0,7.0,74,0.00,,,0.00,vanprod-2.3,2013-01-30 20:32:00,
2013-01-30 14:37:00,10.7,4.1,29.80,WNW,293,7.0,8.0,74,0.00,,,0.00,vanprod-2.3,2013-01-30 20:37:00,
2013-01-30 14:42:00,10.6,4.0,29.80,NW,304,5.0,5.0,74,0.00,,,0.00,vanprod-2.3,2013-01-30 20:42:00,
2013-01-30 14:47:00,10.2,3.9,29.80,NNW,327,8.0,10.0,75,0.00,,,0.00,vanprod-2.3,2013-01-30 20:47:00,
2013-01-30 14:52:00,10.2,4.2,29.80,NW,322,6.0,12.0,76,0.00,,,0.00,vanprod-2.3,2013-01-30 20:52:00,
2013-01-30 14:57:00,10.0,4.0,29.80,NNW,327,4.0,7.0,76,0.00,,,0.00,vanprod-2.3,2013-01-30 20:57:00,
2013-01-30 15:02:00,9.9,3.6,29.80,NW,322,8.0,10.0,75,0.00,,,0.00,vanprod-2.3,2013-01-30 21:02:00,
2013-01-30 15:07:00,9.7,3.4,29.80,NW,316,5.0,9.0,75,0.00,,,0.00,vanprod-2.3,2013-01-30 21:07:00,
2013-01-30 15:12:00,9.7,3.4,29.80,NW,306,7.0,13.0,75,0.00,,,0.00,vanprod-2.3,2013-01-30 21:12:00,
2013-01-30 15:17:00,9.4,2.8,29.80,NW,314,8.0,12.0,74,0.00,,,0.00,vanprod-2.3,2013-01-30 21:17:00,
2013-01-30 15:22:00,9.4,3.1,29.80,NW,308,5.0,8.0,75,0.00,,,0.00,vanprod-2.3,2013-01-30 21:22:00,
2013-01-30 15:27:00,9.4,3.1,29.80,NW,318,4.0,11.0,75,0.00,,,0.00,vanprod-2.3,2013-01-30 21:27:00,
2013-01-30 15:32:00,9.2,2.6,29.81,NW,325,7.0,12.0,74,0.00,,,0.00,vanprod-2.3,2013-01-30 21:32:00,
2013-01-30 15:37:00,8.8,2.2,29.81,NW,309,7.0,14.0,74,0.00,,,0.00,vanprod-2.3,2013-01-30 21:37:00,
2013-01-30 15:42:00,8.7,2.1,29.81,NW,314,5.0,8.0,74,0.00,,,0.00,vanprod-2.3,2013-01-30 21:42:00,
2013-01-30 15:47:00,8.5,1.9,29.81,NNW,338,7.0,11.0,74,0.00,,,0.00,vanprod-2.3,2013-01-30 21:47:00,
2013-01-30 15:52:00,8.5,1.9,29.81,NNW,344,6.0,7.0,74,0.00,,,0.00,vanprod-2.3,2013-01-30 21:52:00,
2013-01-30 15:57:00,8.5,2.2,29.81,NW,321,7.0,12.0,75,0.00,,,0.00,vanprod-2.3,2013-01-30 21:57:00,
2013-01-30 16:02:00,8.3,2.0,29.81,NW,314,5.0,10.0,75,0.00,,,0.00,vanprod-2.3,2013-01-30 22:02:00,
2013-01-30 16:07:00,8.1,1.5,29.82,NW,322,8.0,12.0,74,0.00,,,0.00,vanprod-2.3,2013-01-30 22:07:00,
2013-01-30 16:12:00,8.1,1.5,29.81,NW,316,6.0,13.0,74,0.00,,,0.00,vanprod-2.3,2013-01-30 22:12:00,
2013-01-30 16:17:00,8.1,1.8,29.82,NW,308,3.0,5.0,75,0.00,,,0.00,vanprod-2.3,2013-01-30 22:17:00,
2013-01-30 16:22:00,8.3,1.7,29.81,NW,316,7.0,11.0,74,0.00,,,0.00,vanprod-2.3,2013-01-30 22:22:00,
2013-01-30 16:27:00,8.3,2.0,29.81,North,349,3.0,8.0,75,0.00,,,0.00,vanprod-2.3,2013-01-30 22:27:00,
2013-01-30 16:32:00,8.3,2.0,29.81,NW,320,6.0,10.0,75,0.00,,,0.00,vanprod-2.3,2013-01-30 22:32:00,
2013-01-30 16:37:00,8.1,1.5,29.82,WNW,296,5.0,5.0,74,0.00,,,0.00,vanprod-2.3,2013-01-30 22:37:00,
2013-01-30 16:42:00,7.9,1.3,29.81,North,358,6.0,6.0,74,0.00,,,0.00,vanprod-2.3,2013-01-30 22:42:00,
2013-01-30 16:47:00,7.8,1.5,29.81,NNW,332,6.0,8.0,75,0.00,,,0.00,vanprod-2.3,2013-01-30 22:47:00,
2013-01-30 16:52:00,7.6,1.1,29.81,NW,312,6.0,6.0,74,0.00,,,0.00,vanprod-2.3,2013-01-30 22:52:00,
2013-01-30 16:57:00,7.8,1.3,29.81,NNW,331,6.0,11.0,74,0.00,,,0.00,vanprod-2.3,2013-01-30 22:57:00,
2013-01-30 17:02:00,7.8,1.3,29.81,NW,311,5.0,11.0,74,0.00,,,0.00,vanprod-2.3,2013-01-30 23:02:00,
2013-01-30 17:07:00,7.8,1.3,29.81,NNW,336,6.0,9.0,74,0.00,,,0.00,vanprod-2.3,2013-01-30 23:07:00,
2013-01-30 17:12:00,7.8,1.3,29.81,WNW,291,3.0,3.0,74,0.00,,,0.00,vanprod-2.3,2013-01-30 23:12:00,
2013-01-30 17:17:00,7.4,1.2,29.81,NNW,328,5.0,8.0,75,0.00,,,0.00,vanprod-2.3,2013-01-30 23:17:00,
2013-01-30 17:22:00,7.2,0.7,29.81,NW,319,5.0,6.0,74,0.00,,,0.00,vanprod-2.3,2013-01-30 23:22:00,
2013-01-30 17:27:00,7.1,0.9,29.81,NW,316,5.0,6.0,75,0.00,,,0.00,vanprod-2.3,2013-01-30 23:27:00,
2013-01-30 17:32:00,6.9,0.7,29.82,NW,310,5.0,14.0,75,0.00,,,0.00,vanprod-2.3,2013-01-30 23:32:00,
2013-01-30 17:37:00,6.5,0.3,29.82,WNW,296,4.0,8.0,75,0.00,,,0.00,vanprod-2.3,2013-01-30 23:37:00,
2013-01-30 17:42:00,6.4,0.2,29.82,NW,313,5.0,7.0,75,0.00,,,0.00,vanprod-2.3,2013-01-30 23:42:00,
2013-01-30 17:47:00,6.0,-0.2,29.82,NW,321,4.0,11.0,75,0.00,,,0.00,vanprod-2.3,2013-01-30 23:47:00,
2013-01-30 17:52:00,5.6,-0.6,29.83,NW,324,4.0,11.0,75,0.00,,,0.00,vanprod-2.3,2013-01-30 23:52:00,
2013-01-30 17:57:00,5.5,-0.4,29.83,NW,316,3.0,4.0,76,0.00,,,0.00,vanprod-2.3,2013-01-30 23:57:00,
2013-01-30 18:02:00,5.3,-0.6,29.83,WNW,287,3.0,4.0,76,0.00,,,0.00,vanprod-2.3,2013-01-31 00:02:00,
2013-01-30 18:07:00,4.9,-1.3,29.83,WNW,301,6.0,10.0,75,0.00,,,0.00,vanprod-2.3,2013-01-31 00:07:00,
2013-01-30 18:12:00,4.7,-1.5,29.83,NW,305,6.0,7.0,75,0.00,,,0.00,vanprod-2.3,2013-01-31 00:12:00,
2013-01-30 18:17:00,4.5,-1.4,29.83,NW,318,5.0,7.0,76,0.00,,,0.00,vanprod-2.3,2013-01-31 00:17:00,
2013-01-30 18:22:00,4.3,-1.6,29.83,NW,318,6.0,7.0,76,0.00,,,0.00,vanprod-2.3,2013-01-31 00:22:00,
2013-01-30 18:27:00,4.3,-1.9,29.83,NNW,328,4.0,11.0,75,0.00,,,0.00,vanprod-2.3,2013-01-31 00:27:00,
2013-01-30 18:32:00,4.2,-1.7,29.83,WNW,297,5.0,11.0,76,0.00,,,0.00,vanprod-2.3,2013-01-31 00:32:00,
2013-01-30 18:37:00,4.2,-2.0,29.83,NW,311,3.0,3.0,75,0.00,,,0.00,vanprod-2.3,2013-01-31 00:37:00,
2013-01-30 18:42:00,4.2,-1.7,29.83,NW,314,3.0,6.0,76,0.00,,,0.00,vanprod-2.3,2013-01-31 00:42:00,
2013-01-30 18:47:00,4.2,-1.7,29.83,NNW,338,2.0,3.0,76,0.00,,,0.00,vanprod-2.3,2013-01-31 00:47:00,
2013-01-30 18:52:00,4.2,-1.4,29.83,NW,306,5.0,10.0,77,0.00,,,0.00,vanprod-2.3,2013-01-31 00:52:00,
2013-01-30 18:57:00,4.2,-1.4,29.83,NW,324,4.0,6.0,77,0.00,,,0.00,vanprod-2.3,2013-01-31 00:57:00,
2013-01-30 19:02:00,3.8,-2.1,29.83,NW,306,5.0,6.0,76,0.00,,,0.00,vanprod-2.3,2013-01-31 01:02:00,
2013-01-30 19:07:00,3.6,-2.3,29.84,NNW,335,3.0,6.0,76,0.00,,,0.00,vanprod-2.3,2013-01-31 01:07:00,
2013-01-30 19:12:00,3.4,-2.4,29.83,NW,316,4.0,5.0,76,0.00,,,0.00,vanprod-2.3,2013-01-31 01:12:00,
2013-01-30 19:17:00,3.0,-3.1,29.84,WNW,295,4.0,5.0,75,0.00,,,0.00,vanprod-2.3,2013-01-31 01:17:00,
2013-01-30 19:22:00,2.7,-3.7,29.84,NNW,331,5.0,8.0,74,0.00,,,0.00,vanprod-2.3,2013-01-31 01:22:00,
2013-01-30 19:27:00,2.5,-3.9,29.84,NW,311,4.0,7.0,74,0.00,,,0.00,vanprod-2.3,2013-01-31 01:27:00,
2013-01-30 19:32:00,2.1,-4.3,29.84,WNW,302,5.0,8.0,74,0.00,,,0.00,vanprod-2.3,2013-01-31 01:32:00,
2013-01-30 19:37:00,1.9,-4.5,29.84,NW,314,5.0,5.0,74,0.00,,,0.00,vanprod-2.3,2013-01-31 01:37:00,
2013-01-30 19:42:00,1.7,-4.7,29.84,WNW,302,2.0,7.0,74,0.00,,,0.00,vanprod-2.3,2013-01-31 01:42:00,
2013-01-30 19:47:00,1.3,-5.0,29.84,WNW,295,5.0,8.0,74,0.00,,,0.00,vanprod-2.3,2013-01-31 01:47:00,
2013-01-30 19:52:00,1.2,-5.4,29.84,NW,305,3.0,4.0,73,0.00,,,0.00,vanprod-2.3,2013-01-31 01:52:00,
2013-01-30 19:57:00,1.0,-5.6,29.84,NW,310,7.0,13.0,73,0.00,,,0.00,vanprod-2.3,2013-01-31 01:57:00,
2013-01-30 20:02:00,0.8,-6.1,29.84,NW,317,5.0,5.0,72,0.00,,,0.00,vanprod-2.3,2013-01-31 02:02:00,
2013-01-30 20:07:00,0.6,-6.3,29.84,NW,307,4.0,8.0,72,0.00,,,0.00,vanprod-2.3,2013-01-31 02:07:00,
2013-01-30 20:12:00,0.6,-6.3,29.84,NW,307,5.0,6.0,72,0.00,,,0.00,vanprod-2.3,2013-01-31 02:12:00,
2013-01-30 20:17:00,0.4,-6.2,29.84,NW,308,4.0,7.0,73,0.00,,,0.00,vanprod-2.3,2013-01-31 02:17:00,
2013-01-30 20:22:00,0.2,-6.7,29.84,North,358,4.0,6.0,72,0.00,,,0.00,vanprod-2.3,2013-01-31 02:22:00,
2013-01-30 20:27:00,0.0,-6.9,29.85,NW,313,8.0,12.0,72,0.00,,,0.00,vanprod-2.3,2013-01-31 02:27:00,
2013-01-30 20:32:00,-0.2,-7.1,29.85,NNW,336,4.0,4.0,72,0.00,,,0.00,vanprod-2.3,2013-01-31 02:32:00,
2013-01-30 20:37:00,-0.4,-7.3,29.84,NNW,340,5.0,8.0,72,0.00,,,0.00,vanprod-2.3,2013-01-31 02:37:00,
2013-01-30 20:42:00,-0.5,-7.3,29.85,NW,311,6.0,11.0,72,0.00,,,0.00,vanprod-2.3,2013-01-31 02:42:00,
2013-01-30 20:47:00,-0.7,-7.8,29.84,WNW,302,5.0,6.0,71,0.00,,,0.00,vanprod-2.3,2013-01-31 02:47:00,
2013-01-30 20:52:00,-0.7,-7.5,29.84,NW,325,5.0,6.0,72,0.00,,,0.00,vanprod-2.3,2013-01-31 02:52:00,
2013-01-30 20:57:00,-0.9,-7.7,29.84,NW,308,3.0,5.0,72,0.00,,,0.00,vanprod-2.3,2013-01-31 02:57:00,
2013-01-30 21:02:00,-0.9,-7.7,29.84,NNW,329,5.0,6.0,72,0.00,,,0.00,vanprod-2.3,2013-01-31 03:02:00,
2013-01-30 21:07:00,-0.9,-7.7,29.84,NW,319,6.0,11.0,72,0.00,,,0.00,vanprod-2.3,2013-01-31 03:07:00,
2013-01-30 21:12:00,-0.9,-7.7,29.85,NNW,342,5.0,11.0,72,0.00,,,0.00,vanprod-2.3,2013-01-31 03:12:00,
2013-01-30 21:17:00,-0.9,-7.7,29.85,NW,322,5.0,11.0,72,0.00,,,0.00,vanprod-2.3,2013-01-31 03:17:00,
2013-01-30 21:22:00,-0.7,-7.5,29.85,NNW,342,5.0,6.0,72,0.00,,,0.00,vanprod-2.3,2013-01-31 03:22:00,
2013-01-30 21:27:00,-0.7,-7.5,29.85,NNW,346,5.0,10.0,72,0.00,,,0.00,vanprod-2.3,2013-01-31 03:27:00,
2013-01-30 21:32:00,-0.7,-7.3,29.85,NW,306,5.0,7.0,73,0.00,,,0.00,vanprod-2.3,2013-01-31 03:32:00,
2013-01-30 21:37:00,-0.5,-7.1,29.86,NW,320,6.0,12.0,73,0.00,,,0.00,vanprod-2.3,2013-01-31 03:37:00,
2013-01-30 21:42:00,-0.5,-7.1,29.86,NNW,331,8.0,8.0,73,0.00,,,0.00,vanprod-2.3,2013-01-31 03:42:00,
2013-01-30 21:47:00,-0.5,-7.3,29.86,NW,324,6.0,9.0,72,0.00,,,0.00,vanprod-2.3,2013-01-31 03:47:00,
2013-01-30 21:52:00,-0.5,-7.1,29.86,NW,307,3.0,7.0,73,0.00,,,0.00,vanprod-2.3,2013-01-31 03:52:00,
2013-01-30 21:57:00,-0.5,-6.8,29.86,West,272,5.0,8.0,74,0.00,,,0.00,vanprod-2.3,2013-01-31 03:57:00,
2013-01-30 22:02:00,-0.5,-6.8,29.86,NW,311,3.0,9.0,74,0.00,,,0.00,vanprod-2.3,2013-01-31 04:02:00,
2013-01-30 22:07:00,-0.7,-7.3,29.86,WNW,295,7.0,7.0,73,0.00,,,0.00,vanprod-2.3,2013-01-31 04:07:00,
2013-01-30 22:12:00,-0.9,-7.5,29.86,WNW,300,4.0,11.0,73,0.00,,,0.00,vanprod-2.3,2013-01-31 04:12:00,
2013-01-30 22:17:00,-1.1,-7.6,29.86,NW,312,3.0,3.0,73,0.00,,,0.00,vanprod-2.3,2013-01-31 04:17:00,
2013-01-30 22:22:00,-1.3,-8.1,29.86,NW,306,5.0,7.0,72,0.00,,,0.00,vanprod-2.3,2013-01-31 04:22:00,
2013-01-30 22:27:00,-1.5,-8.3,29.86,WNW,303,3.0,10.0,72,0.00,,,0.00,vanprod-2.3,2013-01-31 04:27:00,
2013-01-30 22:32:00,-1.7,-8.5,29.86,NW,305,3.0,3.0,72,0.00,,,0.00,vanprod-2.3,2013-01-31 04:32:00,
2013-01-30 22:37:00,-1.7,-8.5,29.86,WNW,300,4.0,9.0,72,0.00,,,0.00,vanprod-2.3,2013-01-31 04:37:00,
2013-01-30 22:42:00,-1.9,-8.7,29.86,NNW,329,6.0,11.0,72,0.00,,,0.00,vanprod-2.3,2013-01-31 04:42:00,
2013-01-30 22:47:00,-2.1,-9.2,29.86,North,350,5.0,5.0,71,0.00,,,0.00,vanprod-2.3,2013-01-31 04:47:00,
2013-01-30 22:52:00,-2.1,-9.2,29.86,NW,315,8.0,12.0,71,0.00,,,0.00,vanprod-2.3,2013-01-31 04:52:00,
2013-01-30 22:57:00,-2.3,-9.4,29.86,NNW,328,6.0,14.0,71,0.00,,,0.00,vanprod-2.3,2013-01-31 04:57:00,
2013-01-30 23:00:00,-2.3,-9.4,29.86,NNW,327,6.0,6.0,71,0.00,,,0.00,vanprod-2.3,2013-01-31 05:00:00,
2013-01-30 23:01:00,-2.3,-9.4,29.86,NW,319,7.0,11.0,71,0.00,,,0.00,vanprod-2.3,2013-01-31 05:01:00,
2013-01-30 23:06:00,-2.5,-9.6,29.86,NW,305,4.0,4.0,71,0.00,,,0.00,vanprod-2.3,2013-01-31 05:06:00,
2013-01-30 23:11:00,-2.5,-9.3,29.87,NNW,336,3.0,6.0,72,0.00,,,0.00,vanprod-2.3,2013-01-31 05:11:00,
2013-01-30 23:16:00,-2.5,-9.3,29.87,NW,306,4.0,4.0,72,0.00,,,0.00,vanprod-2.3,2013-01-31 05:16:00,
2013-01-30 23:21:00,-2.7,-9.5,29.87,NW,313,6.0,6.0,72,0.00,,,0.00,vanprod-2.3,2013-01-31 05:21:00,
2013-01-30 23:26:00,-2.9,-9.7,29.87,NW,314,6.0,10.0,72,0.00,,,0.00,vanprod-2.3,2013-01-31 05:26:00,
2013-01-30 23:31:00,-2.9,-9.4,29.87,NW,310,4.0,11.0,73,0.00,,,0.00,vanprod-2.3,2013-01-31 05:31:00,
2013-01-30 23:36:00,-2.9,-9.4,29.88,NW,312,3.0,8.0,73,0.00,,,0.00,vanprod-2.3,2013-01-31 05:36:00,
2013-01-30 23:41:00,-3.1,-9.9,29.88,WNW,300,5.0,6.0,72,0.00,,,0.00,vanprod-2.3,2013-01-31 05:41:00,
2013-01-30 23:46:00,-3.3,-10.1,29.88,NW,310,5.0,10.0,72,0.00,,,0.00,vanprod-2.3,2013-01-31 05:46:00,
2013-01-30 23:51:00,-3.6,-10.3,29.88,WNW,300,5.0,12.0,72,0.00,,,0.00,vanprod-2.3,2013-01-31 05:51:00,
2013-01-30 23:56:00,-3.8,-10.5,29.88,WNW,287,3.0,3.0,72,0.00,,,0.00,vanprod-2.3,2013-01-31 05:56:00,